createdAt,value
2023-03-31T06:49:08.887Z,98268.15
2023-03-31T06:49:42.282Z,98275.73
2023-03-31T06:50:15.975Z,98276.23
2023-03-31T06:50:50.225Z,98274.27
2023-03-31T06:51:23.649Z,98271.23
2023-03-31T06:51:57.124Z,98269.44
2023-03-31T06:52:31.830Z,98267.98
2023-03-31T06:53:06.189Z,98270.58
2023-03-31T06:53:39.431Z,98268.98
2023-03-31T06:54:12.839Z,98266.08
2023-03-31T06:54:46.306Z,98266.29
2023-03-31T06:55:19.659Z,98265.86
2023-03-31T06:55:52.859Z,98266.12
2023-03-31T06:56:27.688Z,98266.27
2023-03-31T06:57:01.092Z,98264.48
2023-03-31T06:57:34.696Z,98264.59
2023-03-31T06:58:08.638Z,98265.38
2023-03-31T06:58:42.126Z,98266.27
2023-03-31T06:59:15.787Z,98262.65
2023-03-31T06:59:49.202Z,98264.31
2023-03-31T07:00:23.348Z,98263.20
2023-03-31T07:00:56.772Z,98265.27
2023-03-31T07:01:31.854Z,98267.48
2023-03-31T07:02:05.537Z,98262.98
2023-03-31T07:02:39.176Z,98261.08
2023-03-31T07:03:13.905Z,98268.47
2023-03-31T07:03:47.343Z,98262.20
2023-03-31T07:04:21.685Z,98260.73
2023-03-31T07:04:55.179Z,98260.91
2023-03-31T07:05:29.103Z,98262.73
2023-03-31T07:06:02.460Z,98263.61
2023-03-31T07:06:36.246Z,98256.36
2023-03-31T07:07:10.393Z,98259.14
2023-03-31T07:07:45.792Z,98259.09
2023-03-31T07:08:20.076Z,98260.98
2023-03-31T07:08:53.303Z,98259.70
2023-03-31T07:09:26.544Z,98263.05
2023-03-31T07:10:00.152Z,98258.49
2023-03-31T07:10:33.518Z,98255.39
2023-03-31T07:11:07.214Z,98257.41
2023-03-31T07:11:40.795Z,98257.61
2023-03-31T07:12:14.293Z,98260.36
2023-03-31T07:12:47.583Z,98261.63
2023-03-31T07:13:21.071Z,98260.29
2023-03-31T07:13:54.548Z,98258.23
2023-03-31T07:14:27.925Z,98258.98
2023-03-31T07:15:01.497Z,98260.56
2023-03-31T07:15:34.962Z,98257.49
2023-03-31T07:16:10.271Z,98257.83
2023-03-31T07:16:43.566Z,98252.85
2023-03-31T07:17:16.987Z,98254.31
2023-03-31T07:17:54.305Z,98256.06
2023-03-31T07:18:34.672Z,98253.61
2023-03-31T07:19:11.314Z,98252.04
2023-03-31T07:19:48.536Z,98252.00
2023-03-31T07:20:21.924Z,98251.44
2023-03-31T07:20:55.350Z,98249.23
2023-03-31T07:21:28.794Z,98248.59
2023-03-31T07:22:02.097Z,98247.35
2023-03-31T07:22:35.463Z,98249.45
2023-03-31T07:23:08.953Z,98249.05
2023-03-31T07:23:42.428Z,98250.78
2023-03-31T07:24:15.805Z,98247.39
2023-03-31T07:24:49.173Z,98246.89
2023-03-31T07:25:23.402Z,98247.66
2023-03-31T07:25:56.896Z,98250.27
2023-03-31T07:26:30.363Z,98249.59
2023-03-31T07:27:03.523Z,98247.85
2023-03-31T07:27:37.815Z,98251.64
2023-03-31T07:28:12.057Z,98251.89
2023-03-31T07:28:45.359Z,98253.04
2023-03-31T07:29:18.896Z,98249.98
2023-03-31T07:29:52.079Z,98255.34
2023-03-31T07:30:25.496Z,98250.60
2023-03-31T07:30:58.988Z,98252.46
2023-03-31T07:31:32.784Z,98256.56
2023-03-31T07:32:06.261Z,98255.98
2023-03-31T07:32:41.525Z,98255.86
2023-03-31T07:33:14.838Z,98255.04
2023-03-31T07:33:48.720Z,98256.81
2023-03-31T07:34:21.911Z,98256.52
2023-03-31T07:34:55.409Z,98253.09
2023-03-31T07:35:31.398Z,98252.29
2023-03-31T07:36:12.723Z,98257.98
2023-03-31T07:36:47.494Z,98257.13
2023-03-31T07:37:21.860Z,98256.65
2023-03-31T07:37:55.298Z,98249.80
2023-03-31T07:38:28.442Z,98253.48
2023-03-31T07:39:01.787Z,98257.48
2023-03-31T07:39:37.244Z,98254.05
2023-03-31T07:40:17.097Z,98258.10
2023-03-31T07:40:58.694Z,98262.06
2023-03-31T07:41:39.378Z,98256.94
2023-03-31T07:42:12.785Z,98259.20
2023-03-31T07:42:49.111Z,98261.13
2023-03-31T07:43:22.899Z,98256.98
2023-03-31T07:43:56.515Z,98259.56
2023-03-31T07:44:29.968Z,98255.36
2023-03-31T07:45:06.517Z,98257.59
2023-03-31T07:45:40.874Z,98256.58
2023-03-31T07:46:17.052Z,98259.95
2023-03-31T07:46:50.367Z,98257.98
2023-03-31T07:47:24.469Z,98258.84
2023-03-31T07:47:58.079Z,98259.02
2023-03-31T07:48:31.649Z,98259.56
2023-03-31T07:49:04.917Z,98256.33
2023-03-31T07:49:38.531Z,98257.77
2023-03-31T07:50:13.372Z,98257.91
2023-03-31T07:50:46.912Z,98253.80
2023-03-31T07:51:23.071Z,98254.48
2023-03-31T07:51:56.352Z,98254.89
2023-03-31T07:52:29.569Z,98257.95
2023-03-31T07:53:02.902Z,98257.88
2023-03-31T07:53:37.000Z,98256.95
2023-03-31T07:54:10.288Z,98259.45
2023-03-31T07:54:43.482Z,98257.69
2023-03-31T07:55:17.091Z,98253.92
2023-03-31T07:55:50.742Z,98252.92
2023-03-31T07:56:26.396Z,98252.41
2023-03-31T07:57:02.170Z,98253.74
2023-03-31T07:57:36.849Z,98255.36
2023-03-31T07:58:12.152Z,98255.92
2023-03-31T07:58:46.566Z,98255.73
2023-03-31T07:59:20.705Z,98252.17
2023-03-31T07:59:54.051Z,98255.33
2023-03-31T08:00:27.841Z,98251.24
2023-03-31T08:01:01.499Z,98253.30
2023-03-31T08:01:35.143Z,98251.09
2023-03-31T08:02:15.251Z,98254.10
2023-03-31T08:02:49.196Z,98252.58
2023-03-31T08:03:22.740Z,98254.44
2023-03-31T08:03:56.288Z,98253.07
2023-03-31T08:04:29.741Z,98250.20
2023-03-31T08:05:03.926Z,98250.54
2023-03-31T08:05:37.260Z,98250.97
2023-03-31T08:06:10.802Z,98248.14
2023-03-31T08:06:44.371Z,98249.98
2023-03-31T08:07:18.161Z,98247.80
2023-03-31T08:07:51.644Z,98247.69
2023-03-31T08:08:25.024Z,98244.50
2023-03-31T08:08:59.227Z,98246.26
2023-03-31T08:09:32.416Z,98242.30
2023-03-31T08:10:08.468Z,98245.38
2023-03-31T08:10:41.625Z,98250.22
2023-03-31T08:11:15.109Z,98242.86
2023-03-31T08:11:49.253Z,98243.67
2023-03-31T08:12:22.710Z,98245.37
2023-03-31T08:12:56.399Z,98245.65
2023-03-31T08:13:29.723Z,98245.16
2023-03-31T08:14:03.067Z,98246.53
2023-03-31T08:14:40.996Z,98245.70
2023-03-31T08:15:14.826Z,98245.71
2023-03-31T08:15:48.217Z,98245.27
2023-03-31T08:16:21.841Z,98241.11
2023-03-31T08:16:55.799Z,98245.70
2023-03-31T08:17:29.122Z,98247.17
2023-03-31T08:18:04.523Z,98242.48
2023-03-31T08:18:37.888Z,98239.69
2023-03-31T08:19:11.380Z,98240.26
2023-03-31T08:19:44.877Z,98236.60
2023-03-31T08:20:18.449Z,98237.30
2023-03-31T08:20:51.560Z,98237.14
2023-03-31T08:21:24.901Z,98238.60
2023-03-31T08:21:58.391Z,98234.45
2023-03-31T08:22:31.709Z,98233.34
2023-03-31T08:23:09.194Z,98232.25
2023-03-31T08:23:42.973Z,98231.50
2023-03-31T08:24:16.349Z,98229.17
2023-03-31T08:24:49.713Z,98233.70
2023-03-31T08:25:24.255Z,98234.08
2023-03-31T08:26:17.839Z,98231.85
2023-03-31T08:26:51.620Z,98230.17
2023-03-31T08:27:26.383Z,98229.04
2023-03-31T08:27:59.725Z,98231.46
2023-03-31T08:28:33.204Z,98227.63
2023-03-31T08:29:06.967Z,98228.11
2023-03-31T08:29:40.229Z,98227.84
2023-03-31T08:30:14.235Z,98225.33
2023-03-31T08:30:47.631Z,98226.84
2023-03-31T08:31:26.744Z,98225.79
2023-03-31T08:32:01.073Z,98228.62
2023-03-31T08:32:35.389Z,98229.95
2023-03-31T08:33:09.020Z,98226.88
2023-03-31T08:33:42.592Z,98229.70
2023-03-31T08:34:15.823Z,98224.98
2023-03-31T08:34:49.185Z,98227.96
2023-03-31T08:35:22.681Z,98223.48
2023-03-31T08:35:56.230Z,98222.42
2023-03-31T08:36:29.744Z,98220.33
2023-03-31T08:37:04.518Z,98220.66
2023-03-31T08:37:39.194Z,98223.45
2023-03-31T08:38:12.859Z,98217.62
2023-03-31T08:38:46.431Z,98217.11
2023-03-31T08:39:19.625Z,98215.38
2023-03-31T08:39:53.008Z,98213.38
2023-03-31T08:40:28.961Z,98213.16
2023-03-31T08:41:03.123Z,98212.27
2023-03-31T08:42:03.469Z,98209.91
2023-03-31T08:42:45.266Z,98206.02
2023-03-31T08:43:27.870Z,98209.88
2023-03-31T08:44:05.522Z,98206.05
2023-03-31T08:44:54.460Z,98203.41
2023-03-31T08:45:36.738Z,98205.04
2023-03-31T08:46:16.049Z,98202.78
2023-03-31T08:46:52.892Z,98202.38
2023-03-31T08:47:30.018Z,98207.59
2023-03-31T08:48:26.540Z,98204.20
2023-03-31T08:49:01.580Z,98201.17
2023-03-31T08:49:47.971Z,98201.12
2023-03-31T08:50:25.740Z,98197.17
2023-03-31T08:51:06.799Z,98197.68
2023-03-31T08:51:44.068Z,98196.08
2023-03-31T08:52:24.121Z,98196.71
2023-03-31T08:53:16.663Z,98197.02
2023-03-31T08:54:08.279Z,98194.16
2023-03-31T08:54:47.550Z,98194.73
2023-03-31T08:55:27.517Z,98194.70
2023-03-31T08:56:01.759Z,98190.44
2023-03-31T08:56:39.485Z,98186.20
2023-03-31T08:57:31.932Z,98186.77
2023-03-31T08:58:31.215Z,98185.51
2023-03-31T08:59:04.807Z,98183.40
2023-03-31T08:59:39.319Z,98187.93
2023-03-31T09:00:19.024Z,98182.07
2023-03-31T09:01:04.564Z,98176.20
2023-03-31T09:02:04.722Z,98173.29
2023-03-31T09:02:49.013Z,98174.02
2023-03-31T09:04:08.257Z,98175.30
2023-03-31T09:05:02.599Z,98174.13
2023-03-31T09:05:59.975Z,98167.41
2023-03-31T09:06:44.461Z,98172.09
2023-03-31T09:08:03.559Z,98171.14
2023-03-31T09:08:39.345Z,98172.02
2023-03-31T09:09:31.136Z,98171.49
2023-03-31T09:10:13.248Z,98170.84
2023-03-31T09:11:00.138Z,98166.75
2023-03-31T09:11:42.765Z,98169.13
2023-03-31T09:12:51.293Z,98167.31
2023-03-31T09:13:45.267Z,98166.81
2023-03-31T09:14:33.078Z,98168.89
2023-03-31T09:15:17.955Z,98171.63
2023-03-31T09:15:56.136Z,98169.88
2023-03-31T09:16:57.210Z,98165.11
2023-03-31T09:17:46.588Z,98168.73
2023-03-31T09:18:29.342Z,98165.41
2023-03-31T09:19:03.613Z,98163.18
2023-03-31T09:19:41.941Z,98160.86
2023-03-31T09:20:23.466Z,98163.95
2023-03-31T09:21:14.522Z,98165.71
2023-03-31T09:21:53.208Z,98162.67
2023-03-31T09:22:31.770Z,98163.76
2023-03-31T09:23:33.553Z,98164.92
2023-03-31T09:24:09.820Z,98162.66
2023-03-31T09:25:10.568Z,98156.69
2023-03-31T09:25:46.072Z,98158.63
2023-03-31T09:26:28.870Z,98160.95
2023-03-31T09:27:13.137Z,98162.20
2023-03-31T09:27:48.002Z,98159.33
2023-03-31T09:28:27.467Z,98156.59
2023-03-31T09:29:07.007Z,98159.77
2023-03-31T09:30:01.917Z,98161.00
2023-03-31T09:30:38.364Z,98158.06
2023-03-31T09:31:20.071Z,98155.45
2023-03-31T09:31:54.806Z,98157.88
2023-03-31T09:32:32.961Z,98159.42
2023-03-31T09:33:17.820Z,98160.02
2023-03-31T09:33:55.831Z,98158.33
2023-03-31T09:34:32.489Z,98158.34
2023-03-31T09:35:22.066Z,98157.16
2023-03-31T09:35:55.558Z,98157.05
2023-03-31T09:36:29.159Z,98159.54
2023-03-31T09:37:02.842Z,98158.92
2023-03-31T09:37:36.227Z,98156.86
2023-03-31T09:38:14.232Z,98155.97
2023-03-31T09:38:48.561Z,98156.63
2023-03-31T09:39:22.263Z,98154.48
2023-03-31T09:39:55.689Z,98149.41
2023-03-31T09:40:30.010Z,98150.98
2023-03-31T09:41:05.697Z,98151.42
2023-03-31T09:41:42.905Z,98153.88
2023-03-31T09:42:16.492Z,98150.61
2023-03-31T09:42:57.290Z,98153.71
2023-03-31T09:43:32.165Z,98151.34
2023-03-31T09:44:07.105Z,98149.45
2023-03-31T09:44:44.882Z,98146.89
2023-03-31T09:45:20.354Z,98152.40
2023-03-31T09:46:08.587Z,98148.55
2023-03-31T09:46:43.246Z,98147.20
2023-03-31T09:47:39.318Z,98146.98
2023-03-31T09:48:17.190Z,98145.64
2023-03-31T09:49:18.404Z,98147.66
2023-03-31T09:49:53.716Z,98145.15
2023-03-31T09:50:30.492Z,98146.14
2023-03-31T09:51:07.398Z,98143.63
2023-03-31T09:51:46.569Z,98144.67
2023-03-31T09:52:37.652Z,98141.78
2023-03-31T09:53:19.655Z,98138.33
2023-03-31T09:53:56.113Z,98141.54
2023-03-31T09:54:37.384Z,98139.55
2023-03-31T09:55:28.432Z,98138.67
2023-03-31T09:56:09.023Z,98136.89
2023-03-31T09:56:42.565Z,98139.59
2023-03-31T09:57:34.103Z,98134.77
2023-03-31T09:58:12.541Z,98135.70
2023-03-31T09:58:49.281Z,98132.34
2023-03-31T09:59:31.165Z,98133.25
2023-03-31T10:00:19.328Z,98130.35
2023-03-31T10:01:02.872Z,98126.85
2023-03-31T10:01:36.975Z,98130.68
2023-03-31T10:02:34.381Z,98130.41
2023-03-31T10:03:08.417Z,98125.98
2023-03-31T10:03:54.372Z,98132.10
2023-03-31T10:04:31.181Z,98128.14
2023-03-31T10:05:07.030Z,98129.31
2023-03-31T10:05:50.305Z,98130.02
2023-03-31T10:06:26.131Z,98130.42
2023-03-31T10:07:01.358Z,98132.77
2023-03-31T10:07:35.321Z,98131.44
2023-03-31T10:08:17.480Z,98128.92
2023-03-31T10:09:05.674Z,98127.94
2023-03-31T10:09:39.831Z,98125.81
2023-03-31T10:10:29.603Z,98122.52
2023-03-31T10:11:02.885Z,98126.01
2023-03-31T10:11:37.201Z,98123.72
2023-03-31T10:12:20.458Z,98125.14
2023-03-31T10:12:53.691Z,98127.73
2023-03-31T10:13:30.963Z,98121.51
2023-03-31T10:14:13.556Z,98123.23
2023-03-31T10:14:49.838Z,98120.77
2023-03-31T10:15:27.978Z,98121.61
2023-03-31T10:16:13.098Z,98118.84
2023-03-31T10:16:53.937Z,98122.79
2023-03-31T10:17:28.290Z,98123.98
2023-03-31T10:18:01.931Z,98122.55
2023-03-31T10:18:41.326Z,98122.05
2023-03-31T10:19:28.523Z,98119.30
2023-03-31T10:20:20.320Z,98118.91
2023-03-31T10:20:54.063Z,98112.98
2023-03-31T10:21:35.964Z,98115.80
2023-03-31T10:22:27.162Z,98111.27
2023-03-31T10:23:15.356Z,98112.77
2023-03-31T10:23:50.722Z,98112.02
2023-03-31T10:24:24.193Z,98112.72
2023-03-31T10:25:11.903Z,98110.50
2023-03-31T10:25:48.766Z,98108.75
2023-03-31T10:26:26.444Z,98105.73
2023-03-31T10:27:00.163Z,98105.46
2023-03-31T10:27:33.860Z,98100.75
2023-03-31T10:28:07.320Z,98097.39
2023-03-31T10:28:41.415Z,98101.41
2023-03-31T10:29:25.801Z,98095.79
2023-03-31T10:30:09.677Z,98096.80
2023-03-31T10:30:49.935Z,98095.73
2023-03-31T10:31:27.443Z,98092.39
2023-03-31T10:32:31.634Z,98092.97
2023-03-31T10:33:55.640Z,98088.52
2023-03-31T10:34:30.488Z,98088.86
2023-03-31T10:35:28.783Z,98089.55
2023-03-31T10:36:24.177Z,98088.77
2023-03-31T10:36:57.444Z,98084.33
2023-03-31T10:37:31.973Z,98080.42
2023-03-31T10:38:11.234Z,98075.38
2023-03-31T10:38:46.325Z,98072.76
2023-03-31T10:39:20.390Z,98073.86
2023-03-31T10:40:02.272Z,98074.83
2023-03-31T10:40:37.023Z,98074.83
2023-03-31T10:41:10.927Z,98072.14
2023-03-31T10:41:45.395Z,98075.44
2023-03-31T10:42:23.269Z,98071.23
2023-03-31T10:43:17.107Z,98073.90
2023-03-31T10:43:56.469Z,98070.84
2023-03-31T10:44:40.011Z,98069.08
2023-03-31T10:45:37.197Z,98074.91
2023-03-31T10:46:12.629Z,98070.95
2023-03-31T10:46:52.951Z,98071.70
2023-03-31T10:47:26.279Z,98072.48
2023-03-31T10:48:01.505Z,98068.32
2023-03-31T10:48:41.546Z,98064.88
2023-03-31T10:49:28.551Z,98063.05
2023-03-31T10:50:05.553Z,98063.94
2023-03-31T10:50:39.315Z,98062.48
2023-03-31T10:51:16.193Z,98067.21
2023-03-31T10:52:01.474Z,98062.83
2023-03-31T10:52:44.814Z,98065.14
2023-03-31T10:53:19.081Z,98064.11
2023-03-31T10:53:54.738Z,98065.23
2023-03-31T10:54:28.150Z,98064.00
2023-03-31T10:55:02.266Z,98059.28
2023-03-31T10:56:17.549Z,98066.30
2023-03-31T10:57:04.774Z,98065.06
2023-03-31T10:57:38.082Z,98066.10
2023-03-31T10:58:11.519Z,98064.56
2023-03-31T10:59:10.793Z,98060.95
2023-03-31T10:59:47.171Z,98060.98
2023-03-31T11:00:44.632Z,98059.88
2023-03-31T11:01:34.402Z,98053.98
2023-03-31T11:02:20.031Z,98053.06
2023-03-31T11:03:15.919Z,98046.52
2023-03-31T11:04:06.497Z,98050.49
2023-03-31T11:05:06.148Z,98046.11
2023-03-31T11:05:56.106Z,98045.36
2023-03-31T11:06:50.080Z,98048.52
2023-03-31T11:07:23.350Z,98047.75
2023-03-31T11:08:42.826Z,98044.47
2023-03-31T11:09:26.448Z,98044.53
2023-03-31T11:09:59.924Z,98045.34
2023-03-31T11:11:09.494Z,98044.88
2023-03-31T11:11:45.412Z,98042.41
2023-03-31T11:12:28.648Z,98046.16
2023-03-31T11:13:25.954Z,98042.77
2023-03-31T11:14:18.199Z,98043.71
2023-03-31T11:15:16.649Z,98040.45
2023-03-31T11:16:01.985Z,98045.69
2023-03-31T11:16:38.634Z,98041.85
2023-03-31T11:17:21.489Z,98038.91
2023-03-31T11:18:07.279Z,98035.00
2023-03-31T11:19:14.548Z,98033.77
2023-03-31T11:20:18.108Z,98037.06
2023-03-31T11:21:03.316Z,98037.85
2023-03-31T11:21:37.080Z,98036.38
2023-03-31T11:22:23.795Z,98033.39
2023-03-31T11:23:25.432Z,98034.99
2023-03-31T11:24:05.397Z,98031.48
2023-03-31T11:24:51.530Z,98027.89
2023-03-31T11:25:45.924Z,98025.61
2023-03-31T11:26:41.510Z,98026.27
2023-03-31T11:27:17.433Z,98024.75
2023-03-31T11:28:00.098Z,98022.96
2023-03-31T11:28:49.627Z,98025.02
2023-03-31T11:29:57.576Z,98024.16
2023-03-31T11:30:52.910Z,98026.44
2023-03-31T11:31:32.379Z,98018.20
2023-03-31T11:32:17.928Z,98022.21
2023-03-31T11:33:21.206Z,98018.11
2023-03-31T11:33:54.679Z,98014.13
2023-03-31T11:34:47.622Z,98013.34
2023-03-31T11:35:33.432Z,98016.05
2023-03-31T11:36:37.486Z,98013.38
2023-03-31T11:38:02.074Z,98011.95
2023-03-31T11:38:38.527Z,98012.63
2023-03-31T11:39:29.010Z,98012.38
2023-03-31T11:40:16.334Z,98010.77
2023-03-31T11:40:55.654Z,98006.35
2023-03-31T11:41:51.340Z,98007.25
2023-03-31T11:42:35.650Z,98007.81
2023-03-31T11:43:14.923Z,98007.88
2023-03-31T11:43:53.454Z,98006.00
2023-03-31T11:44:40.627Z,98005.27
2023-03-31T11:45:22.421Z,98004.73
2023-03-31T11:46:08.949Z,98001.94
2023-03-31T11:47:06.794Z,98006.83
2023-03-31T11:47:46.738Z,98002.73
2023-03-31T11:48:33.943Z,98002.51
2023-03-31T11:49:17.113Z,98003.62
2023-03-31T11:50:00.140Z,98001.37
2023-03-31T11:50:38.741Z,98000.54
2023-03-31T11:51:18.467Z,98002.82
2023-03-31T11:51:59.948Z,97999.01
2023-03-31T11:52:42.146Z,97999.98
2023-03-31T11:53:19.426Z,98000.14
2023-03-31T11:53:56.251Z,97994.84
2023-03-31T11:54:38.317Z,97993.27
2023-03-31T11:55:22.036Z,97987.98
2023-03-31T11:55:58.063Z,97988.52
2023-03-31T11:56:37.378Z,97984.66
2023-03-31T11:57:33.373Z,97984.63
2023-03-31T11:58:15.252Z,97983.97
2023-03-31T11:58:59.161Z,97982.48
2023-03-31T11:59:33.069Z,97982.46
2023-03-31T12:00:14.058Z,97978.96
2023-03-31T12:01:01.130Z,97978.75
2023-03-31T12:01:38.909Z,97976.98
2023-03-31T12:02:26.432Z,97975.67
2023-03-31T12:03:06.347Z,97981.22
2023-03-31T12:03:48.914Z,97980.04
2023-03-31T12:04:39.440Z,97974.49
2023-03-31T12:05:15.968Z,97974.42
2023-03-31T12:05:54.013Z,97975.44
2023-03-31T12:06:34.282Z,97971.92
2023-03-31T12:07:22.981Z,97972.50
2023-03-31T12:07:59.219Z,97970.06
2023-03-31T12:08:44.514Z,97972.89
2023-03-31T12:09:53.547Z,97975.38
2023-03-31T12:10:37.794Z,97971.98
2023-03-31T12:11:44.978Z,97969.73
2023-03-31T12:12:25.367Z,97968.33
2023-03-31T12:13:04.477Z,97974.49
2023-03-31T12:13:56.718Z,97977.52
2023-03-31T12:15:11.384Z,97974.20
2023-03-31T12:15:53.072Z,97978.86
2023-03-31T12:16:48.233Z,97978.59
2023-03-31T12:17:27.837Z,97975.28
2023-03-31T12:18:13.569Z,97975.56
2023-03-31T12:19:19.675Z,97974.48
2023-03-31T12:20:38.447Z,97973.00
2023-03-31T12:21:11.911Z,97970.29
2023-03-31T12:21:51.888Z,97967.14
2023-03-31T12:22:39.373Z,97962.39
2023-03-31T12:23:25.270Z,97964.65
2023-03-31T12:23:58.617Z,97961.42
2023-03-31T12:24:34.228Z,97960.92
2023-03-31T12:25:13.438Z,97961.00
2023-03-31T12:26:03.674Z,97957.81
2023-03-31T12:26:57.846Z,97953.65
2023-03-31T12:27:40.761Z,97960.54
2023-03-31T12:28:16.090Z,97958.27
2023-03-31T12:28:57.220Z,97961.40
2023-03-31T12:29:35.662Z,97957.64
2023-03-31T12:30:18.530Z,97957.97
2023-03-31T12:30:54.842Z,97961.85
2023-03-31T12:31:30.928Z,97954.95
2023-03-31T12:32:28.098Z,97956.61
2023-03-31T12:33:30.358Z,97949.91
2023-03-31T12:34:09.525Z,97949.38
2023-03-31T12:34:57.985Z,97952.59
2023-03-31T12:36:04.007Z,97955.02
2023-03-31T12:37:11.865Z,97950.47
2023-03-31T12:38:00.868Z,97955.06
2023-03-31T12:38:36.933Z,97955.44
2023-03-31T12:39:38.057Z,97955.61
2023-03-31T12:40:33.147Z,97953.48
2023-03-31T12:41:09.666Z,97957.65
2023-03-31T12:42:02.654Z,97954.88
2023-03-31T12:42:45.130Z,97953.52
2023-03-31T12:43:45.051Z,97954.95
2023-03-31T12:44:18.346Z,97955.94
2023-03-31T12:45:06.691Z,97953.65
2023-03-31T12:45:50.095Z,97952.56
2023-03-31T12:46:44.724Z,97947.63
2023-03-31T12:47:36.923Z,97948.27
2023-03-31T12:48:29.362Z,97944.14
2023-03-31T12:49:20.422Z,97941.27
2023-03-31T12:50:09.458Z,97940.15
2023-03-31T12:51:00.654Z,97940.35
2023-03-31T12:51:33.737Z,97942.36
2023-03-31T12:52:15.119Z,97940.41
2023-03-31T12:53:16.356Z,97937.92
2023-03-31T12:54:01.518Z,97938.66
2023-03-31T12:55:22.852Z,97938.68
2023-03-31T12:56:00.602Z,97936.05
2023-03-31T12:57:02.599Z,97936.11
2023-03-31T12:57:36.160Z,97935.55
2023-03-31T12:58:32.455Z,97938.04
2023-03-31T12:59:24.328Z,97935.31
2023-03-31T13:00:17.544Z,97932.64
2023-03-31T13:01:11.116Z,97934.58
2023-03-31T13:02:25.377Z,97934.08
2023-03-31T13:03:34.195Z,97937.64
2023-03-31T13:04:37.341Z,97937.66
2023-03-31T13:05:38.900Z,97938.02
2023-03-31T13:06:32.514Z,97935.27
2023-03-31T13:07:27.151Z,97932.95
2023-03-31T13:08:01.501Z,97933.06
2023-03-31T13:09:08.881Z,97932.02
2023-03-31T13:09:52.518Z,97937.92
2023-03-31T13:10:28.701Z,97934.51
2023-03-31T13:11:02.250Z,97933.73
2023-03-31T13:11:38.704Z,97933.27
2023-03-31T13:12:21.644Z,97933.63
2023-03-31T13:13:05.836Z,97937.50
2023-03-31T13:13:59.867Z,97934.68
2023-03-31T13:14:43.055Z,97930.88
2023-03-31T13:15:17.539Z,97936.52
2023-03-31T13:15:54.805Z,97932.39
2023-03-31T13:16:29.842Z,97932.09
2023-03-31T13:17:39.100Z,97934.80
2023-03-31T13:18:20.480Z,97932.89
2023-03-31T13:18:54.838Z,97937.93
2023-03-31T13:19:36.733Z,97934.02
2023-03-31T13:20:29.240Z,97937.16
2023-03-31T13:21:08.338Z,97935.26
2023-03-31T13:22:03.507Z,97936.02
2023-03-31T13:22:41.251Z,97934.59
2023-03-31T13:23:22.298Z,97935.33
2023-03-31T13:24:01.405Z,97932.52
2023-03-31T13:24:35.729Z,97935.31
2023-03-31T13:25:27.435Z,97934.95
2023-03-31T13:26:01.232Z,97936.60
2023-03-31T13:26:34.349Z,97931.91
2023-03-31T13:27:32.977Z,97929.61
2023-03-31T13:28:22.885Z,97932.00
2023-03-31T13:29:14.743Z,97933.02
2023-03-31T13:29:48.448Z,97931.17
2023-03-31T13:30:37.292Z,97932.79
2023-03-31T13:31:13.010Z,97934.41
2023-03-31T13:32:01.902Z,97934.10
2023-03-31T13:32:37.419Z,97933.11
2023-03-31T13:33:27.421Z,97932.15
2023-03-31T13:34:03.546Z,97928.98
2023-03-31T13:34:49.747Z,97927.14
2023-03-31T13:35:30.394Z,97929.61
2023-03-31T13:36:13.770Z,97930.61
2023-03-31T13:37:09.877Z,97927.98
2023-03-31T13:38:12.781Z,97924.80
2023-03-31T13:39:12.374Z,97923.70
2023-03-31T13:39:58.603Z,97918.70
2023-03-31T13:40:44.886Z,97915.27
2023-03-31T13:41:29.358Z,97918.97
2023-03-31T13:42:24.578Z,97915.95
2023-03-31T13:43:27.971Z,97918.19
2023-03-31T13:44:33.325Z,97915.19
2023-03-31T13:45:15.676Z,97913.78
2023-03-31T13:46:04.319Z,97913.16
2023-03-31T13:46:42.409Z,97914.15
2023-03-31T13:47:43.734Z,97909.61
2023-03-31T13:48:35.084Z,97910.69
2023-03-31T13:49:08.376Z,97909.91
2023-03-31T13:49:56.476Z,97909.48
2023-03-31T13:51:02.156Z,97906.56
2023-03-31T13:51:59.769Z,97906.83
2023-03-31T13:53:12.369Z,97901.00
2023-03-31T13:54:30.815Z,97902.56
2023-03-31T13:55:19.299Z,97900.48
2023-03-31T13:56:09.760Z,97895.89
2023-03-31T13:57:05.087Z,97896.84
2023-03-31T13:57:57.148Z,97895.26
2023-03-31T13:58:58.595Z,97894.89
2023-03-31T13:59:38.016Z,97895.14
2023-03-31T14:00:36.724Z,97890.16
2023-03-31T14:01:41.883Z,97891.11
2023-03-31T14:02:37.517Z,97884.92
2023-03-31T14:03:13.617Z,97884.62
2023-03-31T14:04:13.181Z,97880.33
2023-03-31T14:05:09.658Z,97883.54
2023-03-31T14:05:46.662Z,97881.30
2023-03-31T14:06:44.933Z,97881.59
2023-03-31T14:07:29.378Z,97880.28
2023-03-31T14:08:12.479Z,97879.52
2023-03-31T14:09:01.558Z,97877.43
2023-03-31T14:09:47.418Z,97872.69
2023-03-31T14:10:24.125Z,97876.63
2023-03-31T14:11:23.066Z,97874.13
2023-03-31T14:11:59.539Z,97872.61
2023-03-31T14:12:35.627Z,97871.07
2023-03-31T14:13:15.301Z,97873.87
2023-03-31T14:14:15.829Z,97871.00
2023-03-31T14:14:54.209Z,97872.39
2023-03-31T14:15:30.169Z,97875.21
2023-03-31T14:16:04.660Z,97873.03
2023-03-31T14:16:41.237Z,97875.08
2023-03-31T14:17:16.421Z,97874.23
2023-03-31T14:17:49.969Z,97875.33
2023-03-31T14:18:43.369Z,97871.40
2023-03-31T14:19:35.938Z,97872.61
2023-03-31T14:20:24.759Z,97868.58
2023-03-31T14:21:09.071Z,97869.40
2023-03-31T14:22:00.644Z,97865.98
2023-03-31T14:22:46.070Z,97863.62
2023-03-31T14:23:34.918Z,97862.16
2023-03-31T14:24:32.072Z,97862.08
2023-03-31T14:25:05.539Z,97862.20
2023-03-31T14:25:51.854Z,97860.48
2023-03-31T14:26:47.149Z,97860.10
2023-03-31T14:27:32.815Z,97862.27
2023-03-31T14:28:10.072Z,97860.92
2023-03-31T14:28:58.517Z,97862.42
2023-03-31T14:29:34.666Z,97858.52
2023-03-31T14:30:53.209Z,97858.31
2023-03-31T14:31:36.947Z,97860.81
2023-03-31T14:32:38.789Z,97858.21
2023-03-31T14:33:40.230Z,97858.10
2023-03-31T14:34:48.345Z,97855.44
2023-03-31T14:35:29.305Z,97852.80
2023-03-31T14:36:16.169Z,97849.20
2023-03-31T14:37:04.292Z,97851.79
2023-03-31T14:37:37.798Z,97851.08
2023-03-31T14:38:17.127Z,97848.34
2023-03-31T14:38:50.797Z,97844.89
2023-03-31T14:39:29.069Z,97844.65
2023-03-31T14:40:04.089Z,97845.02
2023-03-31T14:40:47.145Z,97848.02
2023-03-31T14:41:29.949Z,97846.76
2023-03-31T14:42:06.608Z,97847.69
2023-03-31T14:42:41.477Z,97844.41
2023-03-31T14:43:23.196Z,97844.85
2023-03-31T14:44:00.968Z,97844.20
2023-03-31T14:44:36.604Z,97840.83
2023-03-31T14:45:21.007Z,97838.51
2023-03-31T14:46:08.402Z,97836.02
2023-03-31T14:46:41.994Z,97834.06
2023-03-31T14:47:20.845Z,97834.19
2023-03-31T14:48:10.954Z,97834.63
2023-03-31T14:48:47.465Z,97836.76
2023-03-31T14:49:49.071Z,97838.01
2023-03-31T14:50:22.798Z,97835.52
2023-03-31T14:51:02.712Z,97839.23
2023-03-31T14:51:35.960Z,97837.77
2023-03-31T14:52:18.748Z,97840.38
2023-03-31T14:52:52.829Z,97840.53
2023-03-31T14:53:28.427Z,97838.56
2023-03-31T14:54:02.699Z,97838.45
2023-03-31T14:54:38.595Z,97836.60
2023-03-31T14:55:16.518Z,97836.02
2023-03-31T14:55:58.693Z,97832.34
2023-03-31T14:56:40.231Z,97836.71
2023-03-31T14:57:24.259Z,97831.60
2023-03-31T14:58:00.986Z,97830.91
2023-03-31T14:58:37.985Z,97829.02
2023-03-31T14:59:11.860Z,97831.95
2023-03-31T14:59:47.013Z,97832.02
2023-03-31T15:00:29.810Z,97828.80
2023-03-31T15:01:07.190Z,97828.23
2023-03-31T15:01:41.456Z,97825.91
2023-03-31T15:02:20.162Z,97827.08
2023-03-31T15:02:54.890Z,97822.67